Time,TemperatureF,DewpointF,PressureIn,WindDirection,WindDirectionDegrees,WindSpeedMPH,WindSpeedGustMPH,Humidity,HourlyPrecipIn,Conditions,Clouds,dailyrainin,SoftwareType,DateUTC
2013-08-09 00:01:00,80.1,67.8,29.94,SSE,167,0.0,0.0,66,0.00,,---,0.00,VWS V14.01,2013-08-09 04:01:00,
2013-08-09 00:06:00,79.9,68.5,29.94,South,179,0.0,0.0,68,0.00,,---,0.00,VWS V14.01,2013-08-09 04:06:00,
2013-08-09 00:11:00,79.9,68.5,29.94,South,178,0.0,0.0,68,0.00,,---,0.00,VWS V14.01,2013-08-09 04:11:00,
2013-08-09 00:16:00,79.9,69.4,29.94,South,172,3.1,3.1,70,0.00,,---,0.00,VWS V14.01,2013-08-09 04:16:00,
2013-08-09 00:21:00,79.9,69.4,29.94,South,174,3.1,4.9,70,0.00,,---,0.00,VWS V14.01,2013-08-09 04:21:00,
2013-08-09 00:26:00,79.9,69.4,29.94,South,176,3.1,3.6,70,0.00,,---,0.00,VWS V14.01,2013-08-09 04:26:00,
2013-08-09 00:31:00,79.9,69.8,29.94,South,179,0.0,0.0,71,0.00,,---,0.00,VWS V14.01,2013-08-09 04:31:00,
2013-08-09 00:36:00,79.9,69.8,29.91,South,189,2.7,2.7,71,0.00,,---,0.00,VWS V14.01,2013-08-09 04:36:00,
2013-08-09 00:41:00,79.9,69.8,29.91,South,179,0.0,0.0,71,0.00,,---,0.00,VWS V14.01,2013-08-09 04:41:00,
2013-08-09 00:46:00,79.9,69.8,29.91,SSE,154,2.2,2.2,71,0.00,,---,0.00,VWS V14.01,2013-08-09 04:46:00,
2013-08-09 00:51:00,79.9,70.2,29.91,South,177,0.0,0.0,72,0.00,,---,0.00,VWS V14.01,2013-08-09 04:51:00,
2013-08-09 00:56:00,79.7,70.5,29.91,South,169,3.1,3.6,74,0.00,,---,0.00,VWS V14.01,2013-08-09 04:56:00,
2013-08-09 01:01:00,79.7,70.9,29.91,South,180,0.0,2.7,75,0.00,,---,0.00,VWS V14.01,2013-08-09 05:01:00,
2013-08-09 01:06:00,79.7,71.3,29.91,South,174,0.0,0.0,76,0.00,,---,0.00,VWS V14.01,2013-08-09 05:06:00,
2013-08-09 01:11:00,79.7,71.7,29.91,South,174,0.0,0.0,77,0.00,,---,0.00,VWS V14.01,2013-08-09 05:11:00,
2013-08-09 01:16:00,79.5,71.9,29.91,South,172,0.0,0.0,78,0.00,,---,0.00,VWS V14.01,2013-08-09 05:16:00,
2013-08-09 01:21:00,79.5,71.9,29.91,South,172,0.0,0.0,78,0.00,,---,0.00,VWS V14.01,2013-08-09 05:21:00,
2013-08-09 01:26:00,79.5,71.9,29.91,South,172,0.0,0.0,78,0.00,,---,0.00,VWS V14.01,2013-08-09 05:26:00,
2013-08-09 01:31:00,79.5,71.9,29.91,South,172,0.0,0.0,78,0.00,,---,0.00,VWS V14.01,2013-08-09 05:31:00,
2013-08-09 01:36:00,79.3,72.2,29.91,South,188,0.0,0.0,79,0.00,,---,0.00,VWS V14.01,2013-08-09 05:36:00,
2013-08-09 01:41:00,79.3,72.2,29.91,South,188,0.0,0.0,79,0.00,,---,0.00,VWS V14.01,2013-08-09 05:41:00,
2013-08-09 01:46:00,79.3,72.2,29.91,South,188,0.0,0.0,79,0.00,,---,0.00,VWS V14.01,2013-08-09 05:46:00,
2013-08-09 01:51:00,79.2,72.0,29.91,South,187,0.0,2.2,79,0.00,,---,0.00,VWS V14.01,2013-08-09 05:51:00,
2013-08-09 01:56:00,79.2,72.4,29.91,South,181,0.0,0.0,80,0.00,,---,0.00,VWS V14.01,2013-08-09 05:56:00,
2013-08-09 02:01:00,79.2,72.4,29.91,South,181,2.7,2.7,80,0.00,,---,0.00,VWS V14.01,2013-08-09 06:01:00,
2013-08-09 02:06:00,79.2,72.4,29.91,South,181,0.0,0.0,80,0.00,,---,0.00,VWS V14.01,2013-08-09 06:06:00,
2013-08-09 02:11:00,79.2,72.8,29.91,SSW,195,0.0,0.0,81,0.00,,---,0.00,VWS V14.01,2013-08-09 06:11:00,
2013-08-09 02:16:00,79.0,72.6,29.91,SSW,195,0.0,0.0,81,0.00,,---,0.00,VWS V14.01,2013-08-09 06:16:00,
2013-08-09 02:21:00,79.0,72.6,29.88,SSE,149,0.0,0.0,81,0.00,,---,0.00,VWS V14.01,2013-08-09 06:21:00,
2013-08-09 02:26:00,79.0,72.6,29.88,South,177,0.0,0.0,81,0.00,,---,0.00,VWS V14.01,2013-08-09 06:26:00,
2013-08-09 02:31:00,78.8,72.8,29.88,South,178,0.0,0.0,82,0.00,,---,0.00,VWS V14.01,2013-08-09 06:31:00,
2013-08-09 02:36:00,78.8,72.8,29.88,SSW,209,0.0,0.0,82,0.00,,---,0.00,VWS V14.01,2013-08-09 06:36:00,
2013-08-09 02:41:00,78.8,72.8,29.88,South,169,2.7,2.7,82,0.00,,---,0.00,VWS V14.01,2013-08-09 06:41:00,
2013-08-09 02:46:00,79.0,73.4,29.88,SSW,195,5.4,5.4,83,0.00,,---,0.00,VWS V14.01,2013-08-09 06:46:00,
2013-08-09 02:51:00,79.0,73.4,29.88,SSW,197,0.0,0.0,83,0.00,,---,0.00,VWS V14.01,2013-08-09 06:51:00,
2013-08-09 02:56:00,79.0,73.4,29.88,SSW,197,0.0,0.0,83,0.00,,---,0.00,VWS V14.01,2013-08-09 06:56:00,
2013-08-09 03:01:00,79.0,73.0,29.88,SSW,197,0.0,0.0,82,0.00,,---,0.00,VWS V14.01,2013-08-09 07:01:00,
2013-08-09 03:06:00,79.0,73.4,29.88,SW,221,0.0,0.0,83,0.00,,---,0.00,VWS V14.01,2013-08-09 07:06:00,
2013-08-09 03:11:00,79.0,73.4,29.88,SW,221,0.0,0.0,83,0.00,,---,0.00,VWS V14.01,2013-08-09 07:11:00,
2013-08-09 03:16:00,79.0,73.4,29.88,SSE,168,0.0,3.6,83,0.00,,---,0.00,VWS V14.01,2013-08-09 07:16:00,
2013-08-09 03:21:00,79.0,73.4,29.88,South,179,0.0,2.2,83,0.00,,---,0.00,VWS V14.01,2013-08-09 07:21:00,
2013-08-09 03:26:00,79.0,73.4,29.88,SSE,158,0.0,0.0,83,0.00,,---,0.00,VWS V14.01,2013-08-09 07:26:00,
2013-08-09 03:31:00,79.0,73.4,29.88,SSW,196,0.0,0.0,83,0.00,,---,0.00,VWS V14.01,2013-08-09 07:31:00,
2013-08-09 03:36:00,79.0,73.4,29.88,South,191,0.0,0.0,83,0.00,,---,0.00,VWS V14.01,2013-08-09 07:36:00,
2013-08-09 03:41:00,79.0,73.4,29.88,South,180,0.0,2.2,83,0.00,,---,0.00,VWS V14.01,2013-08-09 07:41:00,
2013-08-09 03:46:00,79.0,73.4,29.88,SSE,162,0.0,2.2,83,0.00,,---,0.00,VWS V14.01,2013-08-09 07:46:00,
2013-08-09 03:51:00,79.0,73.4,29.88,South,178,3.1,3.1,83,0.00,,---,0.00,VWS V14.01,2013-08-09 07:51:00,
2013-08-09 03:56:00,79.2,73.5,29.88,SSE,168,0.0,3.1,83,0.00,,---,0.00,VWS V14.01,2013-08-09 07:56:00,
2013-08-09 04:01:00,79.2,73.5,29.88,SSW,195,0.0,0.0,83,0.00,,---,0.00,VWS V14.01,2013-08-09 08:01:00,
2013-08-09 04:06:00,79.2,73.5,29.88,South,184,0.0,0.0,83,0.00,,---,0.00,VWS V14.01,2013-08-09 08:06:00,
2013-08-09 04:11:00,79.2,73.5,29.88,South,184,0.0,0.0,83,0.00,,---,0.00,VWS V14.01,2013-08-09 08:11:00,
2013-08-09 04:16:00,79.0,73.4,29.88,South,178,0.0,4.0,83,0.00,,---,0.00,VWS V14.01,2013-08-09 08:16:00,
2013-08-09 04:21:00,79.0,73.4,29.88,SSE,168,0.0,0.0,83,0.00,,---,0.00,VWS V14.01,2013-08-09 08:21:00,
2013-08-09 04:26:00,79.0,73.4,29.88,South,177,0.0,0.0,83,0.00,,---,0.00,VWS V14.01,2013-08-09 08:26:00,
2013-08-09 04:31:00,79.0,73.4,29.88,South,174,0.0,0.0,83,0.00,,---,0.00,VWS V14.01,2013-08-09 08:31:00,
2013-08-09 04:36:00,79.0,73.4,29.85,South,174,0.0,0.0,83,0.00,,---,0.00,VWS V14.01,2013-08-09 08:36:00,
2013-08-09 04:41:00,79.0,73.4,29.85,South,183,0.0,0.0,83,0.00,,---,0.00,VWS V14.01,2013-08-09 08:41:00,
2013-08-09 04:46:00,78.8,73.2,29.85,South,183,0.0,0.0,83,0.00,,---,0.00,VWS V14.01,2013-08-09 08:46:00,
2013-08-09 04:51:00,78.8,73.2,29.88,South,183,0.0,0.0,83,0.00,,---,0.00,VWS V14.01,2013-08-09 08:51:00,
2013-08-09 04:56:00,78.8,73.2,29.88,South,183,0.0,0.0,83,0.00,,---,0.00,VWS V14.01,2013-08-09 08:56:00,
2013-08-09 05:01:00,78.8,73.2,29.88,South,184,0.0,0.0,83,0.00,,---,0.00,VWS V14.01,2013-08-09 09:01:00,
2013-08-09 05:06:00,78.6,73.4,29.88,South,184,0.0,0.0,84,0.00,,---,0.00,VWS V14.01,2013-08-09 09:06:00,
2013-08-09 05:11:00,78.6,73.4,29.88,South,183,0.0,0.0,84,0.00,,---,0.00,VWS V14.01,2013-08-09 09:11:00,
2013-08-09 05:16:00,78.4,73.2,29.88,South,183,0.0,0.0,84,0.00,,---,0.00,VWS V14.01,2013-08-09 09:16:00,
2013-08-09 05:21:00,78.4,73.6,29.88,South,183,0.0,0.0,85,0.00,,---,0.00,VWS V14.01,2013-08-09 09:21:00,
2013-08-09 05:26:00,78.4,73.6,29.88,South,184,0.0,0.0,85,0.00,,---,0.00,VWS V14.01,2013-08-09 09:26:00,
2013-08-09 05:31:00,78.4,73.6,29.88,South,183,0.0,0.0,85,0.00,,---,0.00,VWS V14.01,2013-08-09 09:31:00,
2013-08-09 05:36:00,78.3,73.4,29.88,South,183,0.0,0.0,85,0.00,,---,0.00,VWS V14.01,2013-08-09 09:36:00,
2013-08-09 05:41:00,78.3,73.4,29.88,South,183,0.0,0.0,85,0.00,,---,0.00,VWS V14.01,2013-08-09 09:41:00,
2013-08-09 05:46:00,78.4,73.6,29.88,South,183,0.0,0.0,85,0.00,,---,0.00,VWS V14.01,2013-08-09 09:46:00,
2013-08-09 05:51:00,78.4,73.9,29.88,South,183,0.0,0.0,86,0.00,,---,0.00,VWS V14.01,2013-08-09 09:51:00,
2013-08-09 05:56:00,78.4,73.9,29.88,South,183,0.0,0.0,86,0.00,,---,0.00,VWS V14.01,2013-08-09 09:56:00,
2013-08-09 06:01:00,78.4,73.9,29.88,South,183,0.0,0.0,86,0.00,,---,0.00,VWS V14.01,2013-08-09 10:01:00,
2013-08-09 06:06:00,78.4,73.9,29.91,South,183,0.0,0.0,86,0.00,,---,0.00,VWS V14.01,2013-08-09 10:06:00,
2013-08-09 06:11:00,78.4,73.9,29.91,South,183,0.0,0.0,86,0.00,,---,0.00,VWS V14.01,2013-08-09 10:11:00,
2013-08-09 06:16:00,78.4,73.9,29.91,South,183,0.0,0.0,86,0.00,,---,0.00,VWS V14.01,2013-08-09 10:16:00,
2013-08-09 06:21:00,78.3,73.8,29.91,South,183,0.0,0.0,86,0.00,,---,0.00,VWS V14.01,2013-08-09 10:21:00,
2013-08-09 06:26:00,78.3,73.8,29.91,South,183,0.0,0.0,86,0.00,,---,0.00,VWS V14.01,2013-08-09 10:26:00,
2013-08-09 06:31:00,78.3,73.8,29.91,South,183,0.0,0.0,86,0.00,,---,0.00,VWS V14.01,2013-08-09 10:31:00,
2013-08-09 06:36:00,78.3,73.8,29.91,South,183,0.0,0.0,86,0.00,,---,0.00,VWS V14.01,2013-08-09 10:36:00,
2013-08-09 06:41:00,78.4,74.3,29.91,South,183,0.0,0.0,87,0.00,,---,0.00,VWS V14.01,2013-08-09 10:41:00,
2013-08-09 06:46:00,79.2,75.4,29.91,South,183,0.0,0.0,88,0.00,,---,0.00,VWS V14.01,2013-08-09 10:46:00,
2013-08-09 06:51:00,79.9,76.4,29.91,South,183,0.0,0.0,89,0.00,,---,0.00,VWS V14.01,2013-08-09 10:51:00,
2013-08-09 06:56:00,80.1,76.6,29.91,South,183,0.0,0.0,89,0.00,,---,0.00,VWS V14.01,2013-08-09 10:56:00,
2013-08-09 07:01:00,79.7,75.5,29.91,South,183,0.0,0.0,87,0.00,,---,0.00,VWS V14.01,2013-08-09 11:01:00,
2013-08-09 07:06:00,79.3,74.8,29.91,South,183,0.0,0.0,86,0.00,,---,0.00,VWS V14.01,2013-08-09 11:06:00,
2013-08-09 07:11:00,79.2,74.7,29.91,South,183,0.0,0.0,86,0.00,,---,0.00,VWS V14.01,2013-08-09 11:11:00,
2013-08-09 07:16:00,79.3,75.2,29.91,South,183,0.0,0.0,87,0.00,,---,0.00,VWS V14.01,2013-08-09 11:16:00,
2013-08-09 07:21:00,79.5,75.0,29.91,South,183,0.0,0.0,86,0.00,,---,0.00,VWS V14.01,2013-08-09 11:21:00,
2013-08-09 07:26:00,79.5,73.9,29.91,South,183,0.0,0.0,83,0.00,,---,0.00,VWS V14.01,2013-08-09 11:26:00,
2013-08-09 07:31:00,79.7,74.1,29.91,South,183,0.0,0.0,83,0.00,,---,0.00,VWS V14.01,2013-08-09 11:31:00,
2013-08-09 07:36:00,79.7,74.1,29.91,South,183,0.0,0.0,83,0.00,,---,0.00,VWS V14.01,2013-08-09 11:36:00,
2013-08-09 07:41:00,79.9,73.9,29.91,South,183,0.0,0.0,82,0.00,,---,0.00,VWS V14.01,2013-08-09 11:41:00,
2013-08-09 07:46:00,79.9,73.1,29.91,South,183,0.0,0.0,80,0.00,,---,0.00,VWS V14.01,2013-08-09 11:46:00,
2013-08-09 07:51:00,80.1,73.7,29.94,South,183,0.0,0.0,81,0.00,,---,0.00,VWS V14.01,2013-08-09 11:51:00,
2013-08-09 07:56:00,80.1,73.7,29.94,South,183,0.0,0.0,81,0.00,,---,0.00,VWS V14.01,2013-08-09 11:56:00,
2013-08-09 08:01:00,80.4,74.4,29.94,South,183,0.0,0.0,82,0.00,,---,0.00,VWS V14.01,2013-08-09 12:01:00,
2013-08-09 08:06:00,81.0,74.9,29.94,South,183,0.0,0.0,82,0.00,,---,0.00,VWS V14.01,2013-08-09 12:06:00,
2013-08-09 08:11:00,81.1,74.7,29.94,South,183,0.0,0.0,81,0.00,,---,0.00,VWS V14.01,2013-08-09 12:11:00,
2013-08-09 08:16:00,81.3,74.5,29.94,South,183,0.0,0.0,80,0.00,,---,0.00,VWS V14.01,2013-08-09 12:16:00,
2013-08-09 08:21:00,81.3,74.5,29.94,South,183,0.0,0.0,80,0.00,,---,0.00,VWS V14.01,2013-08-09 12:21:00,
2013-08-09 08:26:00,81.3,74.5,29.94,South,183,0.0,0.0,80,0.00,,---,0.00,VWS V14.01,2013-08-09 12:26:00,
2013-08-09 08:31:00,81.5,74.7,29.94,South,183,0.0,0.0,80,0.00,,---,0.00,VWS V14.01,2013-08-09 12:31:00,
2013-08-09 08:36:00,81.3,74.1,29.94,South,183,0.0,0.0,79,0.00,,---,0.00,VWS V14.01,2013-08-09 12:36:00,
2013-08-09 08:41:00,81.3,74.1,29.94,South,184,0.0,0.0,79,0.00,,---,0.00,VWS V14.01,2013-08-09 12:41:00,
2013-08-09 08:46:00,81.5,73.9,29.94,South,183,0.0,0.0,78,0.00,,---,0.00,VWS V14.01,2013-08-09 12:46:00,
2013-08-09 08:51:00,81.5,73.9,29.94,South,184,0.0,0.0,78,0.00,,---,0.00,VWS V14.01,2013-08-09 12:51:00,
2013-08-09 08:56:00,81.5,73.5,29.94,South,183,0.0,0.0,77,0.00,,---,0.00,VWS V14.01,2013-08-09 12:56:00,
2013-08-09 09:01:00,81.9,73.4,29.94,WNW,300,0.0,0.0,76,0.00,,---,0.00,VWS V14.01,2013-08-09 13:01:00,
2013-08-09 09:06:00,82.2,72.5,29.94,North,357,2.7,2.7,72,0.00,,---,0.00,VWS V14.01,2013-08-09 13:06:00,
2013-08-09 09:11:00,82.9,72.7,29.94,NNE,25,0.0,0.0,71,0.00,,---,0.00,VWS V14.01,2013-08-09 13:11:00,
2013-08-09 09:16:00,83.3,71.8,29.94,NNW,341,2.2,2.2,68,0.00,,---,0.00,VWS V14.01,2013-08-09 13:16:00,
2013-08-09 09:21:00,83.7,71.2,29.94,North,353,0.0,2.7,66,0.00,,---,0.00,VWS V14.01,2013-08-09 13:21:00,
2013-08-09 09:26:00,83.8,67.9,29.94,NE,52,2.7,3.1,59,0.00,,---,0.00,VWS V14.01,2013-08-09 13:26:00,
2013-08-09 09:31:00,84.6,68.6,29.94,NNW,337,0.0,0.0,59,0.00,,---,0.00,VWS V14.01,2013-08-09 13:31:00,
2013-08-09 09:36:00,84.6,65.3,29.94,ENE,76,2.2,3.6,52,0.00,,---,0.00,VWS V14.01,2013-08-09 13:36:00,
2013-08-09 09:41:00,84.7,64.3,29.94,East,91,2.2,3.1,50,0.00,,---,0.00,VWS V14.01,2013-08-09 13:41:00,
2013-08-09 09:46:00,84.9,63.2,29.94,North,1,3.1,3.1,48,0.00,,---,0.00,VWS V14.01,2013-08-09 13:46:00,
2013-08-09 09:51:00,85.3,62.9,29.94,ENE,64,0.0,0.0,47,0.00,,---,0.00,VWS V14.01,2013-08-09 13:51:00,
2013-08-09 09:56:00,84.7,60.5,29.94,ENE,64,0.0,0.0,44,0.00,,---,0.00,VWS V14.01,2013-08-09 13:56:00,
2013-08-09 10:01:00,84.9,61.3,29.94,ENE,67,0.0,2.2,45,0.00,,---,0.00,VWS V14.01,2013-08-09 14:01:00,
2013-08-09 10:06:00,85.3,60.3,29.94,SSE,165,4.5,4.5,43,0.00,,---,0.00,VWS V14.01,2013-08-09 14:06:00,
2013-08-09 10:11:00,85.8,59.4,29.94,South,179,0.0,0.0,41,0.00,,---,0.00,VWS V14.01,2013-08-09 14:11:00,
2013-08-09 10:16:00,86.2,58.2,29.94,SSE,147,0.0,2.2,39,0.00,,---,0.00,VWS V14.01,2013-08-09 14:16:00,
2013-08-09 10:21:00,86.5,57.8,29.97,North,357,0.0,3.6,38,0.00,,---,0.00,VWS V14.01,2013-08-09 14:21:00,
2013-08-09 10:26:00,86.7,57.2,29.97,North,357,0.0,3.1,37,0.00,,---,0.00,VWS V14.01,2013-08-09 14:26:00,
2013-08-09 10:31:00,86.9,56.5,29.97,ENE,60,0.0,4.0,36,0.00,,---,0.00,VWS V14.01,2013-08-09 14:31:00,
2013-08-09 10:36:00,86.9,54.9,29.97,South,171,0.0,0.0,34,0.00,,---,0.00,VWS V14.01,2013-08-09 14:36:00,
2013-08-09 10:41:00,86.2,56.7,29.97,SSE,163,2.7,2.7,37,0.00,,---,0.00,VWS V14.01,2013-08-09 14:41:00,
2013-08-09 10:46:00,86.2,57.5,29.97,South,183,3.6,3.6,38,0.00,,---,0.00,VWS V14.01,2013-08-09 14:46:00,
2013-08-09 10:51:00,87.1,56.7,29.97,South,181,0.0,2.7,36,0.00,,---,0.00,VWS V14.01,2013-08-09 14:51:00,
2013-08-09 10:56:00,87.4,57.0,29.97,South,182,4.0,4.9,36,0.00,,---,0.00,VWS V14.01,2013-08-09 14:56:00,
2013-08-09 11:01:00,87.4,56.2,29.97,SW,217,3.6,5.4,35,0.00,,---,0.00,VWS V14.01,2013-08-09 15:01:00,
2013-08-09 11:06:00,87.6,53.7,29.97,South,178,2.7,4.0,31,0.00,,---,0.00,VWS V14.01,2013-08-09 15:06:00,
2013-08-09 11:11:00,88.0,54.9,29.97,South,173,0.0,0.0,33,0.00,,---,0.00,VWS V14.01,2013-08-09 15:11:00,
2013-08-09 11:17:00,88.2,53.3,29.97,SSE,168,5.4,5.8,30,0.00,,---,0.00,VWS V14.01,2013-08-09 15:17:00,
2013-08-09 11:22:00,88.2,54.2,29.97,South,189,3.1,4.9,31,0.00,,---,0.00,VWS V14.01,2013-08-09 15:22:00,
2013-08-09 11:27:00,88.2,54.2,29.97,WSW,257,0.0,0.0,31,0.00,,---,0.00,VWS V14.01,2013-08-09 15:27:00,
2013-08-09 11:32:00,87.6,53.7,29.97,SW,216,0.0,0.0,31,0.00,,---,0.00,VWS V14.01,2013-08-09 15:32:00,
2013-08-09 11:37:00,87.1,53.2,29.97,South,180,2.7,3.1,31,0.00,,---,0.00,VWS V14.01,2013-08-09 15:37:00,
2013-08-09 11:42:00,86.9,54.9,29.97,NNW,335,0.0,0.0,34,0.00,,---,0.00,VWS V14.01,2013-08-09 15:42:00,
2013-08-09 11:47:00,86.7,52.9,29.97,SSE,167,3.6,3.6,31,0.00,,---,0.00,VWS V14.01,2013-08-09 15:47:00,
2013-08-09 11:52:00,86.0,52.3,29.97,SSE,167,0.0,0.0,31,0.00,,---,0.00,VWS V14.01,2013-08-09 15:52:00,
2013-08-09 11:57:00,85.6,54.6,29.97,SSE,166,0.0,0.0,35,0.00,,---,0.00,VWS V14.01,2013-08-09 15:57:00,
2013-08-09 12:02:00,86.2,56.7,29.97,ENE,76,3.1,3.6,37,0.00,,---,0.00,VWS V14.01,2013-08-09 16:02:00,
2013-08-09 12:07:00,86.9,57.3,29.97,NNE,24,3.6,3.6,37,0.00,,---,0.00,VWS V14.01,2013-08-09 16:07:00,
2013-08-09 12:12:00,87.3,56.8,29.97,NNE,30,4.9,4.9,36,0.00,,---,0.00,VWS V14.01,2013-08-09 16:12:00,
2013-08-09 12:17:00,88.2,55.1,29.97,North,8,2.7,3.6,33,0.00,,---,0.00,VWS V14.01,2013-08-09 16:17:00,
2013-08-09 12:22:00,89.4,55.3,29.97,ESE,110,0.0,3.1,31,0.00,,---,0.00,VWS V14.01,2013-08-09 16:22:00,
2013-08-09 12:27:00,89.6,54.5,29.97,NE,55,2.7,3.6,30,0.00,,---,0.00,VWS V14.01,2013-08-09 16:27:00,
2013-08-09 12:32:00,89.2,54.2,29.97,ENE,71,4.0,4.9,30,0.00,,---,0.00,VWS V14.01,2013-08-09 16:32:00,
2013-08-09 12:37:00,89.4,54.3,29.97,SW,222,2.7,3.6,30,0.00,,---,0.00,VWS V14.01,2013-08-09 16:37:00,
2013-08-09 12:42:00,89.6,53.5,29.97,ENE,66,3.1,3.1,29,0.00,,---,0.00,VWS V14.01,2013-08-09 16:42:00,
2013-08-09 12:47:00,90.0,52.8,29.97,SSE,168,3.1,4.9,28,0.00,,---,0.00,VWS V14.01,2013-08-09 16:47:00,
2013-08-09 12:52:00,89.8,53.7,29.97,East,81,3.1,3.6,29,0.00,,---,0.00,VWS V14.01,2013-08-09 16:52:00,
2013-08-09 12:57:00,89.8,52.7,29.97,SSW,209,2.7,3.1,28,0.00,,---,0.00,VWS V14.01,2013-08-09 16:57:00,
2013-08-09 13:02:00,89.6,53.5,29.97,East,89,2.2,2.7,29,0.00,,---,0.00,VWS V14.01,2013-08-09 17:02:00,
2013-08-09 13:07:00,89.1,54.0,29.97,SSW,194,2.2,2.7,30,0.00,,---,0.00,VWS V14.01,2013-08-09 17:07:00,
2013-08-09 13:12:00,88.7,53.7,29.97,ENE,73,0.0,0.0,30,0.00,,---,0.00,VWS V14.01,2013-08-09 17:12:00,
2013-08-09 13:17:00,88.7,54.7,29.97,ESE,102,0.0,4.0,31,0.00,,---,0.00,VWS V14.01,2013-08-09 17:17:00,
2013-08-09 13:22:00,88.5,53.6,29.94,East,91,2.2,3.1,30,0.00,,---,0.00,VWS V14.01,2013-08-09 17:22:00,
2013-08-09 13:27:00,88.5,53.6,29.94,South,190,3.1,4.9,30,0.00,,---,0.00,VWS V14.01,2013-08-09 17:27:00,
2013-08-09 13:32:00,88.9,54.8,29.94,North,357,2.2,3.6,31,0.00,,---,0.00,VWS V14.01,2013-08-09 17:32:00,
2013-08-09 13:37:00,90.0,53.8,29.94,ENE,64,0.0,4.0,29,0.00,,---,0.00,VWS V14.01,2013-08-09 17:37:00,
2013-08-09 13:42:00,91.0,54.8,29.94,South,187,2.2,4.0,29,0.00,,---,0.00,VWS V14.01,2013-08-09 17:42:00,
2013-08-09 13:47:00,92.7,48.3,29.94,South,184,2.7,5.8,22,0.00,,---,0.00,VWS V14.01,2013-08-09 17:47:00,
2013-08-09 13:52:00,91.8,51.2,29.94,SE,136,4.0,4.0,25,0.00,,---,0.00,VWS V14.01,2013-08-09 17:52:00,
2013-08-09 13:57:00,91.9,54.5,29.94,South,170,4.0,4.0,28,0.00,,---,0.00,VWS V14.01,2013-08-09 17:57:00,
2013-08-09 14:02:00,92.3,53.8,29.94,NE,51,2.2,2.7,27,0.00,,---,0.00,VWS V14.01,2013-08-09 18:02:00,
2013-08-09 14:07:00,91.6,52.1,29.94,SE,128,2.2,7.2,26,0.00,,---,0.00,VWS V14.01,2013-08-09 18:07:00,
2013-08-09 14:12:00,90.5,53.3,29.94,ENE,71,4.9,4.9,28,0.00,,---,0.00,VWS V14.01,2013-08-09 18:12:00,
2013-08-09 14:17:00,90.1,54.0,29.94,SSE,156,3.6,3.6,29,0.00,,---,0.00,VWS V14.01,2013-08-09 18:17:00,
2013-08-09 14:22:00,90.5,54.3,29.94,South,187,0.0,4.0,29,0.00,,---,0.00,VWS V14.01,2013-08-09 18:22:00,
2013-08-09 14:27:00,89.1,54.0,29.94,South,187,2.7,2.7,30,0.00,,---,0.00,VWS V14.01,2013-08-09 18:27:00,
2013-08-09 14:32:00,87.6,54.6,29.94,South,180,5.4,5.4,33,0.00,,---,0.00,VWS V14.01,2013-08-09 18:32:00,
2013-08-09 14:37:00,86.4,58.4,29.94,SSE,148,3.1,5.8,39,0.00,,---,0.00,VWS V14.01,2013-08-09 18:37:00,
2013-08-09 14:42:00,84.7,59.1,29.94,South,176,3.6,4.9,42,0.00,,---,0.00,VWS V14.01,2013-08-09 18:42:00,
2013-08-09 14:47:00,84.2,59.3,29.94,SSW,195,2.7,3.1,43,0.00,,---,0.00,VWS V14.01,2013-08-09 18:47:00,
2013-08-09 14:52:00,83.8,59.0,29.94,South,175,2.7,2.7,43,0.00,,---,0.00,VWS V14.01,2013-08-09 18:52:00,
2013-08-09 14:57:00,83.1,60.3,29.94,South,169,3.6,3.6,46,0.00,,---,0.00,VWS V14.01,2013-08-09 18:57:00,
2013-08-09 15:02:00,82.9,63.2,29.94,SSE,160,4.0,4.0,51,0.00,,---,0.00,VWS V14.01,2013-08-09 19:02:00,
2013-08-09 15:07:00,82.9,63.8,29.94,South,182,2.2,2.2,52,0.00,,---,0.00,VWS V14.01,2013-08-09 19:07:00,
2013-08-09 15:12:00,82.8,64.8,29.94,SE,145,0.0,3.1,55,0.00,,---,0.00,VWS V14.01,2013-08-09 19:12:00,
2013-08-09 15:17:00,83.5,66.5,29.94,South,184,3.1,3.1,57,0.00,,---,0.00,VWS V14.01,2013-08-09 19:17:00,
2013-08-09 15:22:00,84.6,65.3,29.94,SE,144,3.1,4.0,52,0.00,,---,0.00,VWS V14.01,2013-08-09 19:22:00,
2013-08-09 15:27:00,85.5,63.1,29.94,South,183,2.7,3.6,47,0.00,,---,0.00,VWS V14.01,2013-08-09 19:27:00,
2013-08-09 15:32:00,86.7,62.3,29.94,South,171,4.0,4.9,44,0.00,,---,0.00,VWS V14.01,2013-08-09 19:32:00,
2013-08-09 15:37:00,87.3,62.1,29.91,ENE,73,3.6,4.0,43,0.00,,---,0.00,VWS V14.01,2013-08-09 19:37:00,
2013-08-09 15:42:00,87.6,60.3,29.91,SSE,163,5.4,5.4,40,0.00,,---,0.00,VWS V14.01,2013-08-09 19:42:00,
2013-08-09 15:47:00,87.4,56.2,29.91,ENE,62,4.0,4.0,35,0.00,,---,0.00,VWS V14.01,2013-08-09 19:47:00,
2013-08-09 15:52:00,87.8,55.6,29.91,NNE,33,4.0,4.0,34,0.00,,---,0.00,VWS V14.01,2013-08-09 19:52:00,
2013-08-09 15:57:00,88.2,54.2,29.91,ESE,103,2.2,3.6,31,0.00,,---,0.00,VWS V14.01,2013-08-09 19:57:00,
2013-08-09 16:02:00,88.3,53.4,29.91,NE,44,4.0,5.4,30,0.00,,---,0.00,VWS V14.01,2013-08-09 20:02:00,
2013-08-09 16:07:00,88.3,53.4,29.91,East,99,3.6,6.3,30,0.00,,---,0.00,VWS V14.01,2013-08-09 20:07:00,
2013-08-09 16:12:00,88.5,52.6,29.91,NE,47,3.1,3.1,29,0.00,,---,0.00,VWS V14.01,2013-08-09 20:12:00,
2013-08-09 16:17:00,88.5,52.6,29.91,ENE,61,3.6,5.4,29,0.00,,---,0.00,VWS V14.01,2013-08-09 20:17:00,
2013-08-09 16:22:00,88.7,53.7,29.91,SSW,195,2.7,3.6,30,0.00,,---,0.00,VWS V14.01,2013-08-09 20:22:00,
2013-08-09 16:27:00,88.9,53.9,29.91,SE,142,2.2,2.7,30,0.00,,---,0.00,VWS V14.01,2013-08-09 20:27:00,
2013-08-09 16:32:00,88.5,50.6,29.91,NE,45,3.1,4.9,27,0.00,,---,0.00,VWS V14.01,2013-08-09 20:32:00,
2013-08-09 16:37:00,88.5,52.6,29.91,East,84,3.1,3.1,29,0.00,,---,0.00,VWS V14.01,2013-08-09 20:37:00,
2013-08-09 16:42:00,88.9,52.9,29.91,ESE,106,2.7,2.7,29,0.00,,---,0.00,VWS V14.01,2013-08-09 20:42:00,
2013-08-09 16:47:00,88.7,50.8,29.91,NE,47,2.7,2.7,27,0.00,,---,0.00,VWS V14.01,2013-08-09 20:47:00,
2013-08-09 16:52:00,88.7,48.6,29.91,East,86,5.4,8.1,25,0.00,,---,0.00,VWS V14.01,2013-08-09 20:52:00,
2013-08-09 16:57:00,88.7,49.7,29.91,ESE,119,4.0,5.4,26,0.00,,---,0.00,VWS V14.01,2013-08-09 20:57:00,
2013-08-09 17:02:00,88.7,50.8,29.91,ENE,76,3.6,3.6,27,0.00,,---,0.00,VWS V14.01,2013-08-09 21:02:00,
2013-08-09 17:07:00,88.7,49.7,29.88,East,98,3.1,3.6,26,0.00,,---,0.00,VWS V14.01,2013-08-09 21:07:00,
2013-08-09 17:12:00,88.7,48.6,29.88,East,92,2.7,4.9,25,0.00,,---,0.00,VWS V14.01,2013-08-09 21:12:00,
2013-08-09 17:17:00,88.7,48.6,29.88,NE,50,4.9,4.9,25,0.00,,---,0.00,VWS V14.01,2013-08-09 21:17:00,
2013-08-09 17:22:00,88.7,50.8,29.88,SE,138,2.7,3.6,27,0.00,,---,0.00,VWS V14.01,2013-08-09 21:22:00,
2013-08-09 17:27:00,88.5,49.5,29.88,SW,229,2.7,2.7,26,0.00,,---,0.00,VWS V14.01,2013-08-09 21:27:00,
2013-08-09 17:32:00,88.3,49.4,29.88,NE,50,7.6,7.6,26,0.00,,---,0.00,VWS V14.01,2013-08-09 21:32:00,
2013-08-09 17:37:00,88.3,51.5,29.88,South,175,3.6,3.6,28,0.00,,---,0.00,VWS V14.01,2013-08-09 21:37:00,
2013-08-09 17:42:00,88.3,51.5,29.88,SSE,153,2.7,3.6,28,0.00,,---,0.00,VWS V14.01,2013-08-09 21:42:00,
2013-08-09 17:47:00,88.2,48.2,29.88,SE,140,3.1,6.3,25,0.00,,---,0.00,VWS V14.01,2013-08-09 21:47:00,
2013-08-09 17:52:00,88.2,50.3,29.88,ENE,72,4.9,4.9,27,0.00,,---,0.00,VWS V14.01,2013-08-09 21:52:00,
2013-08-09 17:57:00,88.2,50.3,29.88,East,86,2.7,2.7,27,0.00,,---,0.00,VWS V14.01,2013-08-09 21:57:00,
2013-08-09 18:02:00,88.0,52.2,29.88,SSE,157,4.0,4.0,29,0.00,,---,0.00,VWS V14.01,2013-08-09 22:02:00,
2013-08-09 18:07:00,88.0,53.1,29.88,East,90,4.9,4.9,30,0.00,,---,0.00,VWS V14.01,2013-08-09 22:07:00,
2013-08-09 18:12:00,87.8,52.0,29.88,SE,130,2.7,2.7,29,0.00,,---,0.00,VWS V14.01,2013-08-09 22:12:00,
2013-08-09 18:17:00,87.6,51.8,29.88,East,98,3.1,4.0,29,0.00,,---,0.00,VWS V14.01,2013-08-09 22:17:00,
2013-08-09 18:22:00,87.3,52.5,29.91,SSW,208,0.0,4.0,30,0.00,,---,0.00,VWS V14.01,2013-08-09 22:22:00,
2013-08-09 18:27:00,87.1,52.3,29.91,ENE,78,4.0,4.0,30,0.00,,---,0.00,VWS V14.01,2013-08-09 22:27:00,
2013-08-09 18:32:00,87.1,53.2,29.91,South,184,2.2,2.7,31,0.00,,---,0.00,VWS V14.01,2013-08-09 22:32:00,
2013-08-09 18:37:00,86.7,52.9,29.91,SW,216,0.0,0.0,31,0.00,,---,0.00,VWS V14.01,2013-08-09 22:37:00,
2013-08-09 18:42:00,86.5,53.7,29.91,East,88,3.1,3.1,33,0.00,,---,0.00,VWS V14.01,2013-08-09 22:42:00,
2013-08-09 18:47:00,86.5,53.7,29.91,NE,56,3.6,3.6,33,0.00,,---,0.00,VWS V14.01,2013-08-09 22:47:00,
2013-08-09 18:52:00,86.2,54.2,29.91,SSE,155,3.6,4.9,34,0.00,,---,0.00,VWS V14.01,2013-08-09 22:52:00,
2013-08-09 18:57:00,86.2,54.2,29.91,SSE,149,3.6,5.4,34,0.00,,---,0.00,VWS V14.01,2013-08-09 22:57:00,
2013-08-09 19:02:00,86.0,54.1,29.91,ENE,77,0.0,0.0,34,0.00,,---,0.00,VWS V14.01,2013-08-09 23:02:00,
2013-08-09 19:07:00,85.8,54.8,29.91,SSE,164,3.6,3.6,35,0.00,,---,0.00,VWS V14.01,2013-08-09 23:07:00,
2013-08-09 19:08:00,85.8,54.8,29.91,ESE,115,3.1,3.1,35,0.00,,---,0.00,VWS V14.01,2013-08-09 23:08:00,
2013-08-09 19:13:00,85.5,55.3,29.91,SSW,206,0.0,0.0,36,0.00,,---,0.00,VWS V14.01,2013-08-09 23:13:00,
2013-08-09 19:18:00,85.1,55.7,29.91,South,182,3.1,3.1,37,0.00,,---,0.00,VWS V14.01,2013-08-09 23:18:00,
2013-08-09 19:23:00,84.9,55.6,29.91,NE,50,0.0,0.0,37,0.00,,---,0.00,VWS V14.01,2013-08-09 23:23:00,
2013-08-09 19:28:00,84.7,57.0,29.91,South,191,5.4,5.4,39,0.00,,---,0.00,VWS V14.01,2013-08-09 23:28:00,
2013-08-09 19:33:00,84.6,56.8,29.91,SSE,162,4.0,4.0,39,0.00,,---,0.00,VWS V14.01,2013-08-09 23:33:00,
2013-08-09 19:38:00,84.6,57.5,29.91,ESE,103,2.7,2.7,40,0.00,,---,0.00,VWS V14.01,2013-08-09 23:38:00,
2013-08-09 19:43:00,84.6,58.3,29.91,SE,126,0.0,3.1,41,0.00,,---,0.00,VWS V14.01,2013-08-09 23:43:00,
2013-08-09 19:48:00,84.4,58.1,29.91,SW,236,0.0,0.0,41,0.00,,---,0.00,VWS V14.01,2013-08-09 23:48:00,
2013-08-09 19:53:00,84.0,58.5,29.94,ESE,109,3.1,3.1,42,0.00,,---,0.00,VWS V14.01,2013-08-09 23:53:00,
2013-08-09 19:58:00,83.8,58.3,29.94,South,185,2.2,3.1,42,0.00,,---,0.00,VWS V14.01,2013-08-09 23:58:00,
2013-08-09 20:03:00,83.7,58.8,29.94,WNW,284,0.0,0.0,43,0.00,,---,0.00,VWS V14.01,2013-08-10 00:03:00,
2013-08-09 20:08:00,83.5,59.4,29.94,SSW,197,4.0,4.0,44,0.00,,---,0.00,VWS V14.01,2013-08-10 00:08:00,
2013-08-09 20:13:00,83.1,59.0,29.94,East,100,3.6,3.6,44,0.00,,---,0.00,VWS V14.01,2013-08-10 00:13:00,
2013-08-09 20:18:00,83.1,59.0,29.94,SSE,153,3.1,3.1,44,0.00,,---,0.00,VWS V14.01,2013-08-10 00:18:00,
2013-08-09 20:23:00,82.9,58.9,29.94,SSE,156,0.0,0.0,44,0.00,,---,0.00,VWS V14.01,2013-08-10 00:23:00,
2013-08-09 20:28:00,82.8,58.7,29.94,SE,144,0.0,3.6,44,0.00,,---,0.00,VWS V14.01,2013-08-10 00:28:00,
2013-08-09 20:33:00,82.4,59.0,29.94,East,87,2.2,2.2,45,0.00,,---,0.00,VWS V14.01,2013-08-10 00:33:00,
2013-08-09 20:38:00,82.4,59.0,29.94,SW,218,0.0,0.0,45,0.00,,---,0.00,VWS V14.01,2013-08-10 00:38:00,
2013-08-09 20:43:00,82.2,58.9,29.94,SSW,196,0.0,0.0,45,0.00,,---,0.00,VWS V14.01,2013-08-10 00:43:00,
2013-08-09 20:48:00,82.2,58.9,29.94,East,80,2.7,2.7,45,0.00,,---,0.00,VWS V14.01,2013-08-10 00:48:00,
2013-08-09 20:53:00,82.0,59.4,29.94,SE,134,0.0,0.0,46,0.00,,---,0.00,VWS V14.01,2013-08-10 00:53:00,
2013-08-09 20:58:00,81.9,59.2,29.94,NNE,29,0.0,0.0,46,0.00,,---,0.00,VWS V14.01,2013-08-10 00:58:00,
2013-08-09 21:03:00,81.7,59.7,29.94,SW,222,0.0,0.0,47,0.00,,---,0.00,VWS V14.01,2013-08-10 01:03:00,
2013-08-09 21:08:00,81.7,59.7,29.94,South,181,0.0,0.0,47,0.00,,---,0.00,VWS V14.01,2013-08-10 01:08:00,
2013-08-09 21:13:00,81.7,59.0,29.94,South,181,0.0,0.0,46,0.00,,---,0.00,VWS V14.01,2013-08-10 01:13:00,
2013-08-09 21:18:00,81.7,59.0,29.94,South,181,0.0,0.0,46,0.00,,---,0.00,VWS V14.01,2013-08-10 01:18:00,
2013-08-09 21:23:00,81.5,58.9,29.94,SE,144,0.0,0.0,46,0.00,,---,0.00,VWS V14.01,2013-08-10 01:23:00,
2013-08-09 21:28:00,81.5,59.5,29.94,SE,144,0.0,0.0,47,0.00,,---,0.00,VWS V14.01,2013-08-10 01:28:00,
2013-08-09 21:33:00,81.3,60.0,29.94,SE,144,0.0,0.0,48,0.00,,---,0.00,VWS V14.01,2013-08-10 01:33:00,
2013-08-09 21:38:00,81.1,60.4,29.94,NE,42,0.0,0.0,49,0.00,,---,0.00,VWS V14.01,2013-08-10 01:38:00,
2013-08-09 21:43:00,81.1,61.0,29.94,NE,42,0.0,0.0,50,0.00,,---,0.00,VWS V14.01,2013-08-10 01:43:00,
2013-08-09 21:48:00,81.0,60.8,29.94,NE,44,0.0,0.0,50,0.00,,---,0.00,VWS V14.01,2013-08-10 01:48:00,
2013-08-09 21:53:00,81.0,60.8,29.94,ENE,75,0.0,0.0,50,0.00,,---,0.00,VWS V14.01,2013-08-10 01:53:00,
2013-08-09 21:58:00,81.0,60.8,29.94,SW,219,0.0,0.0,50,0.00,,---,0.00,VWS V14.01,2013-08-10 01:58:00,
2013-08-09 22:03:00,80.8,61.2,29.94,SW,219,0.0,0.0,51,0.00,,---,0.00,VWS V14.01,2013-08-10 02:03:00,
2013-08-09 22:08:00,80.8,61.2,29.94,SSW,205,0.0,2.2,51,0.00,,---,0.00,VWS V14.01,2013-08-10 02:08:00,
2013-08-09 22:13:00,80.8,61.2,29.94,SSE,160,0.0,0.0,51,0.00,,---,0.00,VWS V14.01,2013-08-10 02:13:00,
2013-08-09 22:18:00,80.8,61.2,29.94,NNE,33,0.0,0.0,51,0.00,,---,0.00,VWS V14.01,2013-08-10 02:18:00,
2013-08-09 22:23:00,80.8,61.2,29.94,ENE,76,0.0,3.1,51,0.00,,---,0.00,VWS V14.01,2013-08-10 02:23:00,
2013-08-09 22:28:00,81.0,61.4,29.94,ENE,69,0.0,0.0,51,0.00,,---,0.00,VWS V14.01,2013-08-10 02:28:00,
2013-08-09 22:33:00,81.0,62.0,29.94,ENE,64,2.7,3.1,52,0.00,,---,0.00,VWS V14.01,2013-08-10 02:33:00,
2013-08-09 22:38:00,81.0,62.0,29.94,East,89,0.0,0.0,52,0.00,,---,0.00,VWS V14.01,2013-08-10 02:38:00,
2013-08-09 22:43:00,81.0,62.5,29.94,East,89,0.0,0.0,54,0.00,,---,0.00,VWS V14.01,2013-08-10 02:43:00,
2013-08-09 22:48:00,80.8,62.4,29.94,East,89,0.0,0.0,54,0.00,,---,0.00,VWS V14.01,2013-08-10 02:48:00,
2013-08-09 22:53:00,80.8,62.9,29.94,ENE,77,0.0,2.2,55,0.00,,---,0.00,VWS V14.01,2013-08-10 02:53:00,
2013-08-09 22:58:00,80.8,62.9,29.94,ENE,78,0.0,0.0,55,0.00,,---,0.00,VWS V14.01,2013-08-10 02:58:00,
2013-08-09 23:03:00,80.6,63.3,29.94,ENE,77,0.0,0.0,56,0.00,,---,0.00,VWS V14.01,2013-08-10 03:03:00,
2013-08-09 23:08:00,80.6,63.8,29.94,ENE,73,0.0,0.0,57,0.00,,---,0.00,VWS V14.01,2013-08-10 03:08:00,
2013-08-09 23:13:00,80.6,63.8,29.94,ENE,77,0.0,0.0,57,0.00,,---,0.00,VWS V14.01,2013-08-10 03:13:00,
2013-08-09 23:18:00,80.4,64.7,29.94,South,169,0.0,0.0,59,0.00,,---,0.00,VWS V14.01,2013-08-10 03:18:00,
2013-08-09 23:23:00,80.4,65.2,29.94,South,169,0.0,0.0,60,0.00,,---,0.00,VWS V14.01,2013-08-10 03:23:00,
2013-08-09 23:28:00,80.4,65.7,29.94,South,169,0.0,0.0,61,0.00,,---,0.00,VWS V14.01,2013-08-10 03:28:00,
2013-08-09 23:33:00,80.2,66.5,29.94,SW,216,2.2,2.2,63,0.00,,---,0.00,VWS V14.01,2013-08-10 03:33:00,
2013-08-09 23:38:00,80.4,67.6,29.94,ENE,72,0.0,0.0,65,0.00,,---,0.00,VWS V14.01,2013-08-10 03:38:00,
2013-08-09 23:43:00,80.2,67.9,29.94,ENE,73,0.0,0.0,66,0.00,,---,0.00,VWS V14.01,2013-08-10 03:43:00,
2013-08-09 23:48:00,80.2,67.9,29.94,ENE,73,0.0,0.0,66,0.00,,---,0.00,VWS V14.01,2013-08-10 03:48:00,
2013-08-09 23:53:00,80.2,68.4,29.94,ESE,109,0.0,0.0,67,0.00,,---,0.00,VWS V14.01,2013-08-10 03:53:00,
2013-08-09 23:58:00,80.4,68.6,29.94,NE,47,0.0,0.0,67,0.00,,---,0.00,VWS V14.01,2013-08-10 03:58:00,